WBSB/BWN METAR and TAF weather

Enter ICAO airport designator
Station Type Date Time Source
WBSB METAR 2019/12/07 17:30 UTC NOAA

WBSB 071730Z 19002KT 9999 TS SCT014 FEW015CB BKN140 27/25 Q1010 NOSIG


Station Type Date Time Source
WBSB Decoded METAR 2019/12/07 17:30 UTC NOAA

Brunei Airport, Brunei (WBSB) 04-56N 114-56E 15M
Dec 07, 2019 - 12:30 PM EST / 2019.12.07 1730 UTC
Wind: from the S (190 degrees) at 2 MPH (2 KT):0
Visibility: greater than 7 mile(s):0
Sky conditions: mostly cloudy
Weather: thunder; Cumulonimbus clouds observed
Temperature: 80 F (27 C)
Dew Point: 77 F (25 C)
Relative Humidity: 88%
Pressure (altimeter): 29.83 in. Hg (1010 hPa)
ob: WBSB 071730Z 19002KT 9999 TS SCT014 FEW015CB BKN140 27/25 Q1010 NOSIG
cycle: 17

Station Type Date Time Source
WBSB TAF 2019/12/07 18:09 UTC NOAA

TAF WBSB 071700Z 0718/0900 06003KT 9999 SCT014 FEW015CB
TEMPO 0718/0720 7000 -SHRA
BECMG 0804/0806 32008KT SCT015 FEW016CB

Example: see airport list